sensor_id;sensor_type;location;lat;lon;timestamp;P1;durP1;ratioP1;P2;durP2;ratioP2
75667;SDS011;64266;48.798;44.756;2023-05-07T00:01:07;2.83;;;0.73;;
75667;SDS011;64266;48.798;44.756;2023-05-07T00:06:10;3.63;;;0.90;;
75667;SDS011;64266;48.798;44.756;2023-05-07T00:11:15;2.50;;;0.80;;
75667;SDS011;64266;48.798;44.756;2023-05-07T00:16:18;4.82;;;1.98;;
75667;SDS011;64266;48.798;44.756;2023-05-07T00:21:21;2.50;;;0.90;;
75667;SDS011;64266;48.798;44.756;2023-05-07T00:26:25;3.83;;;1.10;;
75667;SDS011;64266;48.798;44.756;2023-05-07T00:31:28;2.67;;;1.40;;
75667;SDS011;64266;48.798;44.756;2023-05-07T00:36:31;4.32;;;1.67;;
75667;SDS011;64266;48.798;44.756;2023-05-07T00:41:33;2.65;;;1.05;;
75667;SDS011;64266;48.798;44.756;2023-05-07T00:46:38;8.07;;;3.10;;
75667;SDS011;64266;48.798;44.756;2023-05-07T00:51:41;14.05;;;7.22;;
75667;SDS011;64266;48.798;44.756;2023-05-07T00:56:44;14.77;;;7.50;;
75667;SDS011;64266;48.798;44.756;2023-05-07T01:01:47;11.85;;;5.00;;
75667;SDS011;64266;48.798;44.756;2023-05-07T01:06:50;4.68;;;2.83;;
75667;SDS011;64266;48.798;44.756;2023-05-07T01:11:55;9.82;;;4.07;;
75667;SDS011;64266;48.798;44.756;2023-05-07T01:17:01;8.95;;;3.65;;
75667;SDS011;64266;48.798;44.756;2023-05-07T01:22:08;6.28;;;1.50;;
75667;SDS011;64266;48.798;44.756;2023-05-07T01:27:23;2.90;;;1.27;;
75667;SDS011;64266;48.798;44.756;2023-05-07T01:32:33;3.75;;;1.70;;
75667;SDS011;64266;48.798;44.756;2023-05-07T01:37:40;5.25;;;1.70;;
75667;SDS011;64266;48.798;44.756;2023-05-07T01:42:43;4.13;;;1.40;;
75667;SDS011;64266;48.798;44.756;2023-05-07T01:47:47;3.70;;;1.40;;
75667;SDS011;64266;48.798;44.756;2023-05-07T01:52:50;5.70;;;1.50;;
75667;SDS011;64266;48.798;44.756;2023-05-07T01:57:53;2.92;;;1.20;;
75667;SDS011;64266;48.798;44.756;2023-05-07T02:02:56;2.95;;;1.27;;
75667;SDS011;64266;48.798;44.756;2023-05-07T02:08:16;3.92;;;1.27;;
75667;SDS011;64266;48.798;44.756;2023-05-07T02:13:19;3.25;;;1.70;;
75667;SDS011;64266;48.798;44.756;2023-05-07T02:18:24;8.40;;;4.22;;
75667;SDS011;64266;48.798;44.756;2023-05-07T02:23:27;9.48;;;5.47;;
75667;SDS011;64266;48.798;44.756;2023-05-07T02:28:30;8.10;;;3.67;;
75667;SDS011;64266;48.798;44.756;2023-05-07T02:33:38;13.75;;;6.40;;
75667;SDS011;64266;48.798;44.756;2023-05-07T02:38:43;12.90;;;6.65;;
75667;SDS011;64266;48.798;44.756;2023-05-07T02:43:46;6.30;;;2.80;;
75667;SDS011;64266;48.798;44.756;2023-05-07T02:48:49;11.75;;;5.28;;
75667;SDS011;64266;48.798;44.756;2023-05-07T02:53:51;6.80;;;3.50;;
75667;SDS011;64266;48.798;44.756;2023-05-07T02:58:55;6.65;;;2.30;;
75667;SDS011;64266;48.798;44.756;2023-05-07T03:04:02;8.13;;;3.97;;
75667;SDS011;64266;48.798;44.756;2023-05-07T03:09:07;3.83;;;1.20;;
75667;SDS011;64266;48.798;44.756;2023-05-07T03:14:11;4.22;;;2.20;;
75667;SDS011;64266;48.798;44.756;2023-05-07T03:19:14;7.47;;;4.57;;
75667;SDS011;64266;48.798;44.756;2023-05-07T03:24:16;12.27;;;3.97;;
75667;SDS011;64266;48.798;44.756;2023-05-07T03:29:21;7.18;;;4.30;;
75667;SDS011;64266;48.798;44.756;2023-05-07T03:34:24;7.32;;;3.60;;
75667;SDS011;64266;48.798;44.756;2023-05-07T03:39:26;6.60;;;3.05;;
75667;SDS011;64266;48.798;44.756;2023-05-07T03:44:29;3.65;;;1.88;;
75667;SDS011;64266;48.798;44.756;2023-05-07T03:49:34;6.43;;;3.22;;
75667;SDS011;64266;48.798;44.756;2023-05-07T03:54:37;7.43;;;3.30;;
75667;SDS011;64266;48.798;44.756;2023-05-07T03:59:40;6.60;;;2.42;;
75667;SDS011;64266;48.798;44.756;2023-05-07T04:04:43;6.43;;;1.20;;
75667;SDS011;64266;48.798;44.756;2023-05-07T04:09:46;2.75;;;0.90;;
75667;SDS011;64266;48.798;44.756;2023-05-07T04:14:50;9.43;;;2.00;;
75667;SDS011;64266;48.798;44.756;2023-05-07T04:19:52;4.07;;;1.52;;
75667;SDS011;64266;48.798;44.756;2023-05-07T04:24:55;27.60;;;4.90;;
75667;SDS011;64266;48.798;44.756;2023-05-07T04:29:59;7.18;;;3.42;;
75667;SDS011;64266;48.798;44.756;2023-05-07T04:35:08;6.68;;;2.15;;
75667;SDS011;64266;48.798;44.756;2023-05-07T04:40:11;3.92;;;1.50;;
75667;SDS011;64266;48.798;44.756;2023-05-07T04:45:17;4.70;;;1.40;;
75667;SDS011;64266;48.798;44.756;2023-05-07T04:50:22;2.85;;;1.13;;
75667;SDS011;64266;48.798;44.756;2023-05-07T04:55:30;5.72;;;3.03;;
75667;SDS011;64266;48.798;44.756;2023-05-07T05:00:33;4.40;;;2.00;;
75667;SDS011;64266;48.798;44.756;2023-05-07T05:05:38;8.07;;;3.65;;
75667;SDS011;64266;48.798;44.756;2023-05-07T05:10:41;10.05;;;5.47;;
75667;SDS011;64266;48.798;44.756;2023-05-07T05:15:46;11.60;;;5.55;;
75667;SDS011;64266;48.798;44.756;2023-05-07T05:20:50;13.63;;;5.75;;
75667;SDS011;64266;48.798;44.756;2023-05-07T05:25:56;9.30;;;2.63;;
75667;SDS011;64266;48.798;44.756;2023-05-07T05:31:03;7.63;;;3.70;;
75667;SDS011;64266;48.798;44.756;2023-05-07T05:36:09;13.88;;;2.55;;
75667;SDS011;64266;48.798;44.756;2023-05-07T05:41:13;6.00;;;1.48;;
75667;SDS011;64266;48.798;44.756;2023-05-07T05:46:15;9.52;;;2.47;;
75667;SDS011;64266;48.798;44.756;2023-05-07T05:51:18;9.30;;;2.15;;
75667;SDS011;64266;48.798;44.756;2023-05-07T05:56:20;12.90;;;2.00;;
75667;SDS011;64266;48.798;44.756;2023-05-07T06:01:24;11.32;;;2.55;;
75667;SDS011;64266;48.798;44.756;2023-05-07T06:06:29;14.15;;;2.55;;
75667;SDS011;64266;48.798;44.756;2023-05-07T06:11:34;7.70;;;1.50;;
75667;SDS011;64266;48.798;44.756;2023-05-07T06:16:37;8.65;;;1.80;;
75667;SDS011;64266;48.798;44.756;2023-05-07T06:21:42;9.88;;;2.85;;
75667;SDS011;64266;48.798;44.756;2023-05-07T06:26:45;6.80;;;1.77;;
75667;SDS011;64266;48.798;44.756;2023-05-07T06:31:47;7.90;;;2.08;;
75667;SDS011;64266;48.798;44.756;2023-05-07T06:36:52;7.57;;;1.90;;
75667;SDS011;64266;48.798;44.756;2023-05-07T06:42:13;13.82;;;2.10;;
75667;SDS011;64266;48.798;44.756;2023-05-07T06:47:20;11.40;;;2.80;;
75667;SDS011;64266;48.798;44.756;2023-05-07T06:52:27;5.68;;;1.17;;
75667;SDS011;64266;48.798;44.756;2023-05-07T06:57:30;10.13;;;1.80;;
75667;SDS011;64266;48.798;44.756;2023-05-07T07:02:33;7.70;;;2.00;;
75667;SDS011;64266;48.798;44.756;2023-05-07T07:07:36;7.28;;;1.90;;
75667;SDS011;64266;48.798;44.756;2023-05-07T07:12:39;10.73;;;1.90;;
75667;SDS011;64266;48.798;44.756;2023-05-07T07:17:43;5.90;;;2.20;;
75667;SDS011;64266;48.798;44.756;2023-05-07T07:22:46;7.53;;;1.80;;
75667;SDS011;64266;48.798;44.756;2023-05-07T07:27:50;14.45;;;1.88;;
75667;SDS011;64266;48.798;44.756;2023-05-07T07:32:56;15.25;;;2.25;;
75667;SDS011;64266;48.798;44.756;2023-05-07T07:38:08;19.73;;;2.05;;
75667;SDS011;64266;48.798;44.756;2023-05-07T07:43:10;7.63;;;1.42;;
75667;SDS011;64266;48.798;44.756;2023-05-07T07:48:14;9.13;;;1.70;;
75667;SDS011;64266;48.798;44.756;2023-05-07T07:53:17;12.32;;;1.90;;
75667;SDS011;64266;48.798;44.756;2023-05-07T07:58:21;12.77;;;1.98;;
75667;SDS011;64266;48.798;44.756;2023-05-07T08:03:24;9.13;;;1.33;;
75667;SDS011;64266;48.798;44.756;2023-05-07T08:08:32;15.02;;;2.15;;
75667;SDS011;64266;48.798;44.756;2023-05-07T08:13:35;8.07;;;1.40;;
75667;SDS011;64266;48.798;44.756;2023-05-07T08:18:41;8.68;;;1.60;;
75667;SDS011;64266;48.798;44.756;2023-05-07T08:23:45;19.27;;;2.85;;
75667;SDS011;64266;48.798;44.756;2023-05-07T08:28:48;11.88;;;1.83;;
75667;SDS011;64266;48.798;44.756;2023-05-07T08:33:51;9.48;;;1.90;;
75667;SDS011;64266;48.798;44.756;2023-05-07T08:38:55;8.95;;;1.90;;
75667;SDS011;64266;48.798;44.756;2023-05-07T08:43:58;6.88;;;1.63;;
75667;SDS011;64266;48.798;44.756;2023-05-07T08:49:05;3.35;;;1.23;;
75667;SDS011;64266;48.798;44.756;2023-05-07T08:54:09;10.55;;;2.13;;
75667;SDS011;64266;48.798;44.756;2023-05-07T08:59:14;8.63;;;2.03;;
75667;SDS011;64266;48.798;44.756;2023-05-07T09:04:18;7.88;;;1.65;;
75667;SDS011;64266;48.798;44.756;2023-05-07T09:09:22;8.38;;;2.35;;
75667;SDS011;64266;48.798;44.756;2023-05-07T09:14:28;4.82;;;1.85;;
75667;SDS011;64266;48.798;44.756;2023-05-07T09:19:33;6.65;;;2.40;;
75667;SDS011;64266;48.798;44.756;2023-05-07T09:24:39;5.10;;;1.75;;
75667;SDS011;64266;48.798;44.756;2023-05-07T09:29:46;8.75;;;1.70;;
75667;SDS011;64266;48.798;44.756;2023-05-07T09:34:51;5.32;;;1.80;;
75667;SDS011;64266;48.798;44.756;2023-05-07T09:39:58;9.18;;;2.00;;
75667;SDS011;64266;48.798;44.756;2023-05-07T09:45:02;7.15;;;1.65;;
75667;SDS011;64266;48.798;44.756;2023-05-07T09:50:11;8.27;;;1.70;;
75667;SDS011;64266;48.798;44.756;2023-05-07T09:55:15;4.22;;;1.80;;
75667;SDS011;64266;48.798;44.756;2023-05-07T10:00:21;7.05;;;2.25;;
75667;SDS011;64266;48.798;44.756;2023-05-07T10:05:34;6.43;;;2.15;;
75667;SDS011;64266;48.798;44.756;2023-05-07T10:10:39;6.35;;;1.83;;
75667;SDS011;64266;48.798;44.756;2023-05-07T10:15:49;9.23;;;1.88;;
75667;SDS011;64266;48.798;44.756;2023-05-07T10:20:54;10.43;;;2.08;;
75667;SDS011;64266;48.798;44.756;2023-05-07T10:26:01;10.70;;;4.35;;
75667;SDS011;64266;48.798;44.756;2023-05-07T10:31:23;15.13;;;3.42;;
75667;SDS011;64266;48.798;44.756;2023-05-07T10:36:32;22.85;;;3.35;;
75667;SDS011;64266;48.798;44.756;2023-05-07T10:41:40;15.70;;;3.35;;
75667;SDS011;64266;48.798;44.756;2023-05-07T10:46:48;10.73;;;3.28;;
75667;SDS011;64266;48.798;44.756;2023-05-07T10:52:15;19.17;;;3.30;;
75667;SDS011;64266;48.798;44.756;2023-05-07T10:57:36;12.48;;;2.63;;
75667;SDS011;64266;48.798;44.756;2023-05-07T11:03:07;12.85;;;2.53;;
75667;SDS011;64266;48.798;44.756;2023-05-07T11:08:19;24.85;;;4.68;;
75667;SDS011;64266;48.798;44.756;2023-05-07T11:13:41;11.98;;;2.28;;
75667;SDS011;64266;48.798;44.756;2023-05-07T11:18:51;15.00;;;2.28;;
75667;SDS011;64266;48.798;44.756;2023-05-07T11:24:08;27.00;;;4.15;;
75667;SDS011;64266;48.798;44.756;2023-05-07T11:29:23;12.15;;;2.47;;
75667;SDS011;64266;48.798;44.756;2023-05-07T11:34:32;18.33;;;3.35;;
75667;SDS011;64266;48.798;44.756;2023-05-07T11:39:37;11.73;;;2.53;;
75667;SDS011;64266;48.798;44.756;2023-05-07T11:44:45;9.10;;;1.83;;
75667;SDS011;64266;48.798;44.756;2023-05-07T11:49:50;14.25;;;2.90;;
75667;SDS011;64266;48.798;44.756;2023-05-07T11:55:01;12.65;;;2.30;;
75667;SDS011;64266;48.798;44.756;2023-05-07T12:00:07;25.23;;;4.75;;
75667;SDS011;64266;48.798;44.756;2023-05-07T12:05:16;22.60;;;3.55;;
75667;SDS011;64266;48.798;44.756;2023-05-07T12:10:18;15.13;;;3.10;;
75667;SDS011;64266;48.798;44.756;2023-05-07T12:15:22;22.27;;;4.63;;
75667;SDS011;64266;48.798;44.756;2023-05-07T12:20:25;27.23;;;4.57;;
75667;SDS011;64266;48.798;44.756;2023-05-07T12:25:34;25.27;;;4.32;;
75667;SDS011;64266;48.798;44.756;2023-05-07T12:30:39;26.95;;;5.10;;
75667;SDS011;64266;48.798;44.756;2023-05-07T12:35:42;15.73;;;3.70;;
75667;SDS011;64266;48.798;44.756;2023-05-07T12:40:53;23.13;;;4.32;;
75667;SDS011;64266;48.798;44.756;2023-05-07T12:45:57;16.08;;;4.32;;
75667;SDS011;64266;48.798;44.756;2023-05-07T12:51:11;10.20;;;3.28;;
75667;SDS011;64266;48.798;44.756;2023-05-07T12:56:15;10.52;;;3.20;;
75667;SDS011;64266;48.798;44.756;2023-05-07T13:01:18;12.93;;;3.10;;
75667;SDS011;64266;48.798;44.756;2023-05-07T13:06:21;10.68;;;3.17;;
75667;SDS011;64266;48.798;44.756;2023-05-07T13:11:24;16.83;;;3.88;;
75667;SDS011;64266;48.798;44.756;2023-05-07T13:16:27;13.23;;;3.65;;
75667;SDS011;64266;48.798;44.756;2023-05-07T13:21:30;18.70;;;4.07;;
75667;SDS011;64266;48.798;44.756;2023-05-07T13:26:35;36.13;;;12.73;;
75667;SDS011;64266;48.798;44.756;2023-05-07T13:31:38;15.98;;;3.65;;
75667;SDS011;64266;48.798;44.756;2023-05-07T13:36:45;14.60;;;3.80;;
75667;SDS011;64266;48.798;44.756;2023-05-07T13:41:48;14.05;;;3.83;;
75667;SDS011;64266;48.798;44.756;2023-05-07T13:46:51;19.92;;;4.03;;
75667;SDS011;64266;48.798;44.756;2023-05-07T13:51:54;10.73;;;3.42;;
75667;SDS011;64266;48.798;44.756;2023-05-07T13:56:58;12.07;;;4.63;;
75667;SDS011;64266;48.798;44.756;2023-05-07T14:02:03;15.98;;;4.00;;
75667;SDS011;64266;48.798;44.756;2023-05-07T14:07:06;18.65;;;5.45;;
75667;SDS011;64266;48.798;44.756;2023-05-07T14:12:10;31.98;;;6.63;;
75667;SDS011;64266;48.798;44.756;2023-05-07T14:17:14;22.67;;;5.43;;
75667;SDS011;64266;48.798;44.756;2023-05-07T14:22:18;18.92;;;4.50;;
75667;SDS011;64266;48.798;44.756;2023-05-07T14:27:23;12.10;;;4.57;;
75667;SDS011;64266;48.798;44.756;2023-05-07T14:32:26;15.10;;;4.82;;
75667;SDS011;64266;48.798;44.756;2023-05-07T14:37:28;16.80;;;5.93;;
75667;SDS011;64266;48.798;44.756;2023-05-07T14:42:32;15.80;;;5.10;;
75667;SDS011;64266;48.798;44.756;2023-05-07T14:47:34;18.17;;;5.85;;
75667;SDS011;64266;48.798;44.756;2023-05-07T14:52:37;15.82;;;4.93;;
75667;SDS011;64266;48.798;44.756;2023-05-07T14:57:40;18.63;;;10.23;;
75667;SDS011;64266;48.798;44.756;2023-05-07T15:02:43;31.67;;;21.52;;
75667;SDS011;64266;48.798;44.756;2023-05-07T15:07:45;30.77;;;20.40;;
75667;SDS011;64266;48.798;44.756;2023-05-07T15:12:48;28.13;;;17.63;;
75667;SDS011;64266;48.798;44.756;2023-05-07T15:17:53;14.25;;;9.13;;
75667;SDS011;64266;48.798;44.756;2023-05-07T15:22:56;13.35;;;7.88;;
75667;SDS011;64266;48.798;44.756;2023-05-07T15:27:59;13.38;;;5.53;;
75667;SDS011;64266;48.798;44.756;2023-05-07T15:33:02;19.35;;;4.93;;
75667;SDS011;64266;48.798;44.756;2023-05-07T15:38:05;9.07;;;5.00;;
75667;SDS011;64266;48.798;44.756;2023-05-07T15:43:10;13.95;;;4.57;;
75667;SDS011;64266;48.798;44.756;2023-05-07T15:48:13;22.10;;;5.22;;
75667;SDS011;64266;48.798;44.756;2023-05-07T15:53:16;30.33;;;5.88;;
75667;SDS011;64266;48.798;44.756;2023-05-07T15:58:19;33.72;;;6.53;;
75667;SDS011;64266;48.798;44.756;2023-05-07T16:03:22;48.45;;;8.25;;
75667;SDS011;64266;48.798;44.756;2023-05-07T16:08:25;28.27;;;5.47;;
75667;SDS011;64266;48.798;44.756;2023-05-07T16:13:28;21.48;;;4.72;;
75667;SDS011;64266;48.798;44.756;2023-05-07T16:18:31;7.40;;;2.88;;
75667;SDS011;64266;48.798;44.756;2023-05-07T16:23:34;5.20;;;2.40;;
75667;SDS011;64266;48.798;44.756;2023-05-07T16:28:38;7.13;;;3.83;;
75667;SDS011;64266;48.798;44.756;2023-05-07T16:33:40;10.88;;;5.15;;
75667;SDS011;64266;48.798;44.756;2023-05-07T16:38:42;12.77;;;6.35;;
75667;SDS011;64266;48.798;44.756;2023-05-07T16:43:45;17.02;;;9.25;;
75667;SDS011;64266;48.798;44.756;2023-05-07T16:48:48;18.52;;;10.30;;
75667;SDS011;64266;48.798;44.756;2023-05-07T16:53:50;22.95;;;13.48;;
75667;SDS011;64266;48.798;44.756;2023-05-07T16:58:54;23.55;;;8.55;;
75667;SDS011;64266;48.798;44.756;2023-05-07T17:03:57;13.90;;;5.72;;
75667;SDS011;64266;48.798;44.756;2023-05-07T17:09:00;13.95;;;4.40;;
75667;SDS011;64266;48.798;44.756;2023-05-07T17:14:03;7.38;;;3.05;;
75667;SDS011;64266;48.798;44.756;2023-05-07T17:19:06;7.55;;;2.92;;
75667;SDS011;64266;48.798;44.756;2023-05-07T17:24:09;5.60;;;2.97;;
75667;SDS011;64266;48.798;44.756;2023-05-07T17:29:13;7.03;;;3.33;;
75667;SDS011;64266;48.798;44.756;2023-05-07T17:34:16;13.88;;;8.05;;
75667;SDS011;64266;48.798;44.756;2023-05-07T17:39:21;6.00;;;3.70;;
75667;SDS011;64266;48.798;44.756;2023-05-07T17:44:23;4.35;;;2.38;;
75667;SDS011;64266;48.798;44.756;2023-05-07T17:49:27;4.95;;;2.53;;
75667;SDS011;64266;48.798;44.756;2023-05-07T17:54:31;5.82;;;2.60;;
75667;SDS011;64266;48.798;44.756;2023-05-07T17:59:34;9.45;;;3.50;;
75667;SDS011;64266;48.798;44.756;2023-05-07T18:04:37;7.30;;;2.65;;
75667;SDS011;64266;48.798;44.756;2023-05-07T18:09:39;5.00;;;2.55;;
75667;SDS011;64266;48.798;44.756;2023-05-07T18:14:42;7.38;;;2.60;;
75667;SDS011;64266;48.798;44.756;2023-05-07T18:19:45;5.97;;;2.88;;
75667;SDS011;64266;48.798;44.756;2023-05-07T18:24:48;8.68;;;3.53;;
75667;SDS011;64266;48.798;44.756;2023-05-07T18:29:51;8.02;;;2.90;;
75667;SDS011;64266;48.798;44.756;2023-05-07T18:34:54;13.50;;;4.03;;
75667;SDS011;64266;48.798;44.756;2023-05-07T18:39:56;6.35;;;2.45;;
75667;SDS011;64266;48.798;44.756;2023-05-07T18:45:03;4.88;;;2.40;;
75667;SDS011;64266;48.798;44.756;2023-05-07T18:50:09;7.53;;;2.78;;
75667;SDS011;64266;48.798;44.756;2023-05-07T18:55:13;4.20;;;2.03;;
75667;SDS011;64266;48.798;44.756;2023-05-07T19:00:17;5.32;;;2.30;;
75667;SDS011;64266;48.798;44.756;2023-05-07T19:05:20;6.35;;;2.50;;
75667;SDS011;64266;48.798;44.756;2023-05-07T19:10:24;6.63;;;2.38;;
75667;SDS011;64266;48.798;44.756;2023-05-07T19:15:26;5.25;;;2.20;;
75667;SDS011;64266;48.798;44.756;2023-05-07T19:20:29;6.57;;;2.30;;
75667;SDS011;64266;48.798;44.756;2023-05-07T19:25:33;4.88;;;1.90;;
75667;SDS011;64266;48.798;44.756;2023-05-07T19:30:37;4.60;;;2.35;;
75667;SDS011;64266;48.798;44.756;2023-05-07T19:35:41;6.40;;;2.40;;
75667;SDS011;64266;48.798;44.756;2023-05-07T19:40:43;6.53;;;2.63;;
75667;SDS011;64266;48.798;44.756;2023-05-07T19:45:47;6.47;;;2.40;;
75667;SDS011;64266;48.798;44.756;2023-05-07T19:50:51;4.63;;;2.10;;
75667;SDS011;64266;48.798;44.756;2023-05-07T19:56:01;6.07;;;2.42;;
75667;SDS011;64266;48.798;44.756;2023-05-07T20:01:05;5.45;;;2.80;;
75667;SDS011;64266;48.798;44.756;2023-05-07T20:06:07;22.67;;;7.47;;
75667;SDS011;64266;48.798;44.756;2023-05-07T20:11:10;19.95;;;6.35;;
75667;SDS011;64266;48.798;44.756;2023-05-07T20:16:14;13.70;;;5.82;;
75667;SDS011;64266;48.798;44.756;2023-05-07T20:21:17;11.35;;;4.50;;
75667;SDS011;64266;48.798;44.756;2023-05-07T20:26:19;11.73;;;4.22;;
75667;SDS011;64266;48.798;44.756;2023-05-07T20:31:22;9.10;;;4.68;;
75667;SDS011;64266;48.798;44.756;2023-05-07T20:36:24;7.78;;;4.35;;
75667;SDS011;64266;48.798;44.756;2023-05-07T20:41:28;8.13;;;4.28;;
75667;SDS011;64266;48.798;44.756;2023-05-07T20:46:31;6.20;;;3.60;;
75667;SDS011;64266;48.798;44.756;2023-05-07T20:51:34;6.43;;;2.67;;
75667;SDS011;64266;48.798;44.756;2023-05-07T20:56:38;3.80;;;1.98;;
75667;SDS011;64266;48.798;44.756;2023-05-07T21:01:40;6.82;;;2.33;;
75667;SDS011;64266;48.798;44.756;2023-05-07T21:06:44;4.32;;;1.92;;
75667;SDS011;64266;48.798;44.756;2023-05-07T21:11:47;3.80;;;1.63;;
75667;SDS011;64266;48.798;44.756;2023-05-07T21:16:50;3.83;;;1.70;;
75667;SDS011;64266;48.798;44.756;2023-05-07T21:21:54;3.90;;;2.10;;
75667;SDS011;64266;48.798;44.756;2023-05-07T21:26:59;4.75;;;2.38;;
75667;SDS011;64266;48.798;44.756;2023-05-07T21:32:01;4.63;;;1.73;;
75667;SDS011;64266;48.798;44.756;2023-05-07T21:37:05;4.10;;;1.70;;
75667;SDS011;64266;48.798;44.756;2023-05-07T21:42:08;5.43;;;2.05;;
75667;SDS011;64266;48.798;44.756;2023-05-07T21:47:11;5.03;;;2.00;;
75667;SDS011;64266;48.798;44.756;2023-05-07T21:52:14;7.63;;;3.72;;
75667;SDS011;64266;48.798;44.756;2023-05-07T21:57:18;12.65;;;7.65;;
75667;SDS011;64266;48.798;44.756;2023-05-07T22:02:22;9.65;;;4.65;;
75667;SDS011;64266;48.798;44.756;2023-05-07T22:07:25;4.32;;;2.13;;
75667;SDS011;64266;48.798;44.756;2023-05-07T22:12:29;5.25;;;2.30;;
75667;SDS011;64266;48.798;44.756;2023-05-07T22:17:33;3.53;;;2.00;;
75667;SDS011;64266;48.798;44.756;2023-05-07T22:22:46;6.18;;;2.10;;
75667;SDS011;64266;48.798;44.756;2023-05-07T22:27:53;4.97;;;2.28;;
75667;SDS011;64266;48.798;44.756;2023-05-07T22:32:57;5.45;;;2.33;;
75667;SDS011;64266;48.798;44.756;2023-05-07T22:38:00;3.50;;;1.80;;
75667;SDS011;64266;48.798;44.756;2023-05-07T22:43:04;4.50;;;1.85;;
75667;SDS011;64266;48.798;44.756;2023-05-07T22:48:06;6.70;;;2.17;;
75667;SDS011;64266;48.798;44.756;2023-05-07T22:53:09;3.03;;;1.50;;
75667;SDS011;64266;48.798;44.756;2023-05-07T22:58:11;5.55;;;1.92;;
75667;SDS011;64266;48.798;44.756;2023-05-07T23:03:14;3.95;;;2.08;;
75667;SDS011;64266;48.798;44.756;2023-05-07T23:08:18;5.80;;;2.20;;
75667;SDS011;64266;48.798;44.756;2023-05-07T23:13:22;4.68;;;2.10;;
75667;SDS011;64266;48.798;44.756;2023-05-07T23:18:25;4.15;;;1.95;;
75667;SDS011;64266;48.798;44.756;2023-05-07T23:23:29;4.55;;;2.20;;
75667;SDS011;64266;48.798;44.756;2023-05-07T23:28:35;5.88;;;2.75;;
75667;SDS011;64266;48.798;44.756;2023-05-07T23:33:38;5.85;;;3.17;;
75667;SDS011;64266;48.798;44.756;2023-05-07T23:38:41;7.13;;;2.42;;
75667;SDS011;64266;48.798;44.756;2023-05-07T23:43:44;7.13;;;2.80;;
75667;SDS011;64266;48.798;44.756;2023-05-07T23:48:47;9.88;;;3.78;;
75667;SDS011;64266;48.798;44.756;2023-05-07T23:53:49;6.90;;;3.75;;
75667;SDS011;64266;48.798;44.756;2023-05-07T23:58:52;7.32;;;4.00;;
